Time,TemperatureF,DewpointF,PressureIn,WindDirection,WindDirectionDegrees,WindSpeedMPH,WindSpeedGustMPH,Humidity,HourlyPrecipIn,Conditions,Clouds,dailyrainin,SoftwareType,DateUTC
2012-01-21 00:14:00,38.9,32.0,30.08,NNE,18,0.0,3.0,76,0.00,,,0.00,weatherlink.com 1.10,2012-01-21 08:14:00,
2012-01-21 00:29:00,39.2,30.0,30.08,NNE,25,0.0,0.0,69,0.00,,,0.00,weatherlink.com 1.10,2012-01-21 08:29:00,
2012-01-21 00:44:00,40.2,29.0,30.04,ENE,60,0.0,1.0,65,0.00,,,0.00,weatherlink.com 1.10,2012-01-21 08:44:00,
2012-01-21 00:59:00,41.0,30.0,30.06,NNE,20,0.0,2.0,66,0.00,,,0.00,weatherlink.com 1.10,2012-01-21 08:59:00,
2012-01-21 01:14:00,42.5,28.0,30.07,WNW,297,4.0,5.0,58,0.00,,,0.00,weatherlink.com 1.10,2012-01-21 09:14:00,
2012-01-21 01:29:00,41.8,27.0,30.04,WSW,242,1.0,4.0,56,0.00,,,0.00,weatherlink.com 1.10,2012-01-21 09:29:00,
2012-01-21 01:44:00,41.7,28.0,30.05,SSW,211,0.0,2.0,58,0.00,,,0.00,weatherlink.com 1.10,2012-01-21 09:44:00,
2012-01-21 01:59:00,44.1,35.0,30.05,NW,309,1.0,4.0,70,0.00,,,0.00,weatherlink.com 1.10,2012-01-21 09:59:00,
2012-01-21 02:14:00,43.4,29.0,30.04,WSW,249,1.0,4.0,58,0.00,,,0.00,weatherlink.com 1.10,2012-01-21 10:14:00,
2012-01-21 02:29:00,48.1,43.0,30.03,NW,319,1.0,6.0,83,0.00,,,0.00,weatherlink.com 1.10,2012-01-21 10:29:00,
2012-01-21 02:44:00,47.3,43.0,30.02,WSW,252,2.0,8.0,86,0.00,,,0.00,weatherlink.com 1.10,2012-01-21 10:44:00,
2012-01-21 02:59:00,47.5,43.0,30.02,NNW,331,4.0,8.0,84,0.00,,,0.00,weatherlink.com 1.10,2012-01-21 10:59:00,
2012-01-21 03:14:00,48.0,43.0,30.00,SW,228,2.0,9.0,83,0.00,,,0.00,weatherlink.com 1.10,2012-01-21 11:14:00,
2012-01-21 03:29:00,48.7,44.0,30.00,SW,224,3.0,4.0,84,0.00,,,0.00,weatherlink.com 1.10,2012-01-21 11:29:00,
2012-01-21 03:44:00,49.2,44.0,29.98,SW,228,4.0,7.0,83,0.00,,,0.00,weatherlink.com 1.10,2012-01-21 11:44:00,
2012-01-21 03:59:00,49.1,44.0,29.99,North,9,0.0,4.0,83,0.00,,,0.00,weatherlink.com 1.10,2012-01-21 11:59:00,
2012-01-21 04:14:00,49.0,44.0,29.98,NNE,25,2.0,3.0,84,0.00,,,0.00,weatherlink.com 1.10,2012-01-21 12:14:00,
2012-01-21 04:29:00,48.9,45.0,29.97,NNE,30,7.0,10.0,87,0.00,,,0.00,weatherlink.com 1.10,2012-01-21 12:29:00,
2012-01-21 04:44:00,43.5,40.0,29.97,West,266,1.0,10.0,88,0.00,,,0.00,weatherlink.com 1.10,2012-01-21 12:44:00,
2012-01-21 04:59:00,40.3,38.0,29.97,North,11,3.0,7.0,90,0.00,,,0.00,weatherlink.com 1.10,2012-01-21 12:59:00,
2012-01-21 05:14:00,42.4,41.0,29.97,North,350,3.0,4.0,94,0.00,,,0.00,weatherlink.com 1.10,2012-01-21 13:14:00,
2012-01-21 05:30:00,45.9,45.0,29.98,NNE,14,4.0,4.0,95,0.00,,,0.00,weatherlink.com 1.10,2012-01-21 13:30:00,
2012-01-21 05:45:00,46.1,44.0,29.98,SSW,194,0.0,6.0,92,0.00,,,0.00,weatherlink.com 1.10,2012-01-21 13:45:00,
2012-01-21 06:00:00,42.4,40.0,29.99,SW,232,3.0,6.0,91,0.00,,,0.00,weatherlink.com 1.10,2012-01-21 14:00:00,
2012-01-21 06:15:00,42.3,41.0,29.98,NNW,335,1.0,6.0,94,0.00,,,0.00,weatherlink.com 1.10,2012-01-21 14:15:00,
2012-01-21 06:30:00,42.4,41.0,29.98,NW,319,1.0,7.0,94,0.00,,,0.00,weatherlink.com 1.10,2012-01-21 14:30:00,
2012-01-21 06:45:00,43.2,41.0,29.98,WSW,256,1.0,5.0,92,0.00,,,0.00,weatherlink.com 1.10,2012-01-21 14:45:00,
2012-01-21 07:00:00,42.2,41.0,29.97,NE,40,1.0,7.0,94,0.00,,,0.00,weatherlink.com 1.10,2012-01-21 15:00:00,
2012-01-21 07:15:00,42.0,40.0,29.97,NNW,336,2.0,4.0,94,0.00,,,0.00,weatherlink.com 1.10,2012-01-21 15:15:00,
2012-01-21 07:30:00,41.7,40.0,30.00,SW,222,0.0,4.0,95,0.00,,,0.00,weatherlink.com 1.10,2012-01-21 15:30:00,
2012-01-21 07:45:00,41.9,41.0,30.00,NW,326,0.0,5.0,95,0.00,,,0.00,weatherlink.com 1.10,2012-01-21 15:45:00,
2012-01-21 08:00:00,41.9,40.0,30.00,NNW,329,2.0,8.0,94,0.00,,,0.00,weatherlink.com 1.10,2012-01-21 16:00:00,
2012-01-21 08:15:00,42.2,41.0,30.01,NNE,16,4.0,7.0,94,0.00,,,0.00,weatherlink.com 1.10,2012-01-21 16:15:00,
2012-01-21 08:30:00,42.4,41.0,30.00,SW,215,1.0,5.0,93,0.00,,,0.00,weatherlink.com 1.10,2012-01-21 16:30:00,
2012-01-21 08:45:00,42.2,41.0,30.01,SW,219,0.0,2.0,94,0.00,,,0.00,weatherlink.com 1.10,2012-01-21 16:45:00,
2012-01-21 09:00:00,41.9,40.0,30.03,NNE,33,0.0,8.0,94,0.00,,,0.00,weatherlink.com 1.10,2012-01-21 17:00:00,
2012-01-21 09:15:00,42.0,40.0,30.04,North,355,0.0,6.0,94,0.00,,,0.00,weatherlink.com 1.10,2012-01-21 17:15:00,
2012-01-21 09:30:00,42.4,41.0,30.04,NNW,336,1.0,7.0,94,0.00,,,0.00,weatherlink.com 1.10,2012-01-21 17:30:00,
2012-01-21 09:45:00,42.6,41.0,30.02,North,4,1.0,6.0,95,0.00,,,0.00,weatherlink.com 1.10,2012-01-21 17:45:00,
2012-01-21 10:00:00,43.3,42.0,30.02,West,277,0.0,3.0,95,0.00,,,0.00,weatherlink.com 1.10,2012-01-21 18:00:00,
2012-01-21 10:15:00,43.3,42.0,30.01,WSW,249,1.0,4.0,94,0.00,,,0.00,weatherlink.com 1.10,2012-01-21 18:15:00,
2012-01-21 10:30:00,43.3,42.0,30.01,SW,217,0.0,6.0,94,0.00,,,0.00,weatherlink.com 1.10,2012-01-21 18:30:00,
2012-01-21 10:45:00,43.3,42.0,30.01,WSW,239,2.0,4.0,95,0.00,,,0.00,weatherlink.com 1.10,2012-01-21 18:45:00,
2012-01-21 11:00:00,43.0,42.0,30.01,WSW,242,1.0,5.0,95,0.00,,,0.00,weatherlink.com 1.10,2012-01-21 19:00:00,
2012-01-21 11:15:00,42.5,41.0,30.00,SW,221,2.0,8.0,95,0.00,,,0.00,weatherlink.com 1.10,2012-01-21 19:15:00,
2012-01-21 11:30:00,42.0,41.0,29.99,WSW,244,2.0,5.0,95,0.00,,,0.00,weatherlink.com 1.10,2012-01-21 19:30:00,
2012-01-21 11:45:00,41.8,41.0,30.00,SW,217,0.0,4.0,95,0.00,,,0.00,weatherlink.com 1.10,2012-01-21 19:45:00,
2012-01-21 12:00:00,41.6,40.0,29.98,SSW,201,1.0,4.0,95,0.00,,,0.00,weatherlink.com 1.10,2012-01-21 20:00:00,
2012-01-21 12:15:00,41.3,40.0,29.99,SSW,205,1.0,9.0,96,0.00,,,0.00,weatherlink.com 1.10,2012-01-21 20:15:00,
2012-01-21 12:30:00,41.2,40.0,29.98,WSW,257,1.0,5.0,95,0.00,,,0.00,weatherlink.com 1.10,2012-01-21 20:30:00,
2012-01-21 12:45:00,41.0,40.0,30.00,SW,214,2.0,6.0,95,0.00,,,0.00,weatherlink.com 1.10,2012-01-21 20:45:00,
2012-01-21 13:00:00,40.8,40.0,30.00,SSW,208,1.0,6.0,95,0.00,,,0.00,weatherlink.com 1.10,2012-01-21 21:00:00,
2012-01-21 13:15:00,40.8,40.0,30.00,NNW,340,2.0,7.0,95,0.00,,,0.00,weatherlink.com 1.10,2012-01-21 21:15:00,
2012-01-21 13:30:00,40.9,40.0,30.00,SSW,208,1.0,6.0,95,0.00,,,0.00,weatherlink.com 1.10,2012-01-21 21:30:00,
2012-01-21 13:45:00,40.9,39.0,30.00,West,277,0.0,8.0,93,0.00,,,0.00,weatherlink.com 1.10,2012-01-21 21:45:00,
2012-01-21 14:00:00,41.3,40.0,29.99,WSW,239,0.0,4.0,93,0.00,,,0.00,weatherlink.com 1.10,2012-01-21 22:00:00,
2012-01-21 14:15:00,41.0,38.0,30.00,WNW,287,1.0,8.0,90,0.00,,,0.00,weatherlink.com 1.10,2012-01-21 22:15:00,
2012-01-21 14:30:00,41.5,39.0,30.00,SW,219,2.0,4.0,92,0.00,,,0.00,weatherlink.com 1.10,2012-01-21 22:30:00,
2012-01-21 15:00:00,41.0,39.0,30.00,West,273,0.0,3.0,92,0.00,,,0.00,weatherlink.com 1.10,2012-01-21 23:00:00,
2012-01-21 15:15:00,41.6,39.0,29.99,West,263,0.0,4.0,89,0.00,,,0.00,weatherlink.com 1.10,2012-01-21 23:15:00,
2012-01-21 15:30:00,41.4,38.0,30.00,SW,236,0.0,3.0,89,0.00,,,0.00,weatherlink.com 1.10,2012-01-21 23:30:00,
2012-01-21 16:16:00,41.1,39.0,30.02,SW,235,0.0,6.0,91,0.00,,,0.00,weatherlink.com 1.10,2012-01-22 00:16:00,
2012-01-21 17:46:00,39.7,38.0,30.02,SSW,203,7.0,10.0,93,0.00,,,0.00,weatherlink.com 1.10,2012-01-22 01:46:00,
2012-01-21 18:01:00,39.4,38.0,30.02,WSW,238,4.0,9.0,95,0.00,,,0.00,weatherlink.com 1.10,2012-01-22 02:01:00,
2012-01-21 18:16:00,39.1,38.0,30.02,SSW,208,0.0,5.0,96,0.00,,,0.00,weatherlink.com 1.10,2012-01-22 02:16:00,
2012-01-21 18:31:00,39.1,38.0,30.03,SW,229,0.0,7.0,96,0.00,,,0.00,weatherlink.com 1.10,2012-01-22 02:31:00,
2012-01-21 18:46:00,38.8,38.0,30.02,SW,226,2.0,4.0,96,0.00,,,0.00,weatherlink.com 1.10,2012-01-22 02:46:00,
2012-01-21 19:01:00,37.7,36.0,30.02,South,181,9.0,16.0,95,0.00,,,0.00,weatherlink.com 1.10,2012-01-22 03:01:00,
2012-01-21 19:16:00,38.4,32.0,30.05,WSW,255,6.0,8.0,77,0.00,,,0.00,weatherlink.com 1.10,2012-01-22 03:16:00,
2012-01-21 19:31:00,39.7,27.0,30.03,North,6,3.0,9.0,62,0.00,,,0.00,weatherlink.com 1.10,2012-01-22 03:31:00,
2012-01-21 19:47:00,40.3,24.0,30.02,ESE,110,6.0,8.0,53,0.00,,,0.00,weatherlink.com 1.10,2012-01-22 03:47:00,
2012-01-21 20:01:00,38.4,27.0,30.03,West,281,1.0,4.0,65,0.00,,,0.00,weatherlink.com 1.10,2012-01-22 04:01:00,
2012-01-21 20:16:00,36.6,31.0,30.02,NNW,331,5.0,8.0,80,0.00,,,0.00,weatherlink.com 1.10,2012-01-22 04:16:00,
2012-01-21 20:32:00,35.5,32.0,30.03,NNE,23,1.0,8.0,87,0.00,,,0.00,weatherlink.com 1.10,2012-01-22 04:32:00,
2012-01-21 20:47:00,35.1,33.0,30.04,NNE,22,7.0,11.0,90,0.00,,,0.00,weatherlink.com 1.10,2012-01-22 04:47:00,
2012-01-21 21:02:00,35.0,31.0,30.05,North,356,1.0,5.0,86,0.00,,,0.00,weatherlink.com 1.10,2012-01-22 05:02:00,
2012-01-21 21:17:00,34.9,30.0,30.06,South,190,1.0,5.0,82,0.00,,,0.00,weatherlink.com 1.10,2012-01-22 05:17:00,
2012-01-21 21:32:00,34.4,29.0,30.07,NNE,33,0.0,4.0,80,0.00,,,0.00,weatherlink.com 1.10,2012-01-22 05:32:00,
2012-01-21 21:47:00,34.2,28.0,30.07,NNE,28,3.0,6.0,78,0.00,,,0.00,weatherlink.com 1.10,2012-01-22 05:47:00,
2012-01-21 22:02:00,34.1,29.0,30.07,NNE,13,0.0,5.0,80,0.00,,,0.00,weatherlink.com 1.10,2012-01-22 06:02:00,
2012-01-21 22:17:00,34.7,29.0,30.05,SW,215,0.0,10.0,78,0.00,,,0.00,weatherlink.com 1.10,2012-01-22 06:17:00,
2012-01-21 22:32:00,34.1,30.0,30.06,NE,43,1.0,8.0,85,0.00,,,0.00,weatherlink.com 1.10,2012-01-22 06:32:00,
2012-01-21 22:47:00,34.8,30.0,30.07,NNE,23,4.0,7.0,84,0.00,,,0.00,weatherlink.com 1.10,2012-01-22 06:47:00,
2012-01-21 23:02:00,34.7,30.0,30.07,North,359,5.0,9.0,83,0.00,,,0.00,weatherlink.com 1.10,2012-01-22 07:02:00,
2012-01-21 23:17:00,35.1,28.0,30.09,NNW,343,4.0,5.0,75,0.00,,,0.00,weatherlink.com 1.10,2012-01-22 07:17:00,
2012-01-21 23:32:00,35.8,26.0,30.09,NNW,339,1.0,7.0,67,0.00,,,0.00,weatherlink.com 1.10,2012-01-22 07:32:00,
2012-01-21 23:47:00,35.5,25.0,30.10,NNE,16,3.0,5.0,65,0.00,,,0.00,weatherlink.com 1.10,2012-01-22 07:47:00,